^^
Station Historical Data
Daily Summary for February 19, 2017 Units:  Metric    English   Both
« Previous Day
Next Day »
Daily Weekly Monthly Yearly Custom
  High: Low: Average:
Temperature: 34.1 °C 21.4 °C 25.7 °C
Dew Point: 17.8 °C 9.5 °C 12.6 °C
Humidity: 50% 36% 44%
Wind Speed: 27.4km/h 0km/h 6.8km/h
Wind Gust: 32.2km/h - -
Wind- - SW
Pressure: 1009 hPa 1005 hPa -
Precipitation: 0 mm    
Historical Graphs
 
 
Tabular Data for February 19, 2017
Time Temperature Dew Point Pressure Wind Wind Speed Wind Gust Humidity Rainfall Rate (Hourly) solar Conditions
02:14 23.4 °C 11.1 °C 1008.4 hPa SW 7.9 km/h 14.5 km/h 46% 0 mm 0.0 W/m2
02:20 23.4 °C 11.1 °C 1008.4 hPa SW 11.1 km/h 12.9 km/h 46% 0 mm 0.0 W/m2
02:30 23.3 °C 11 °C 1008.4 hPa SW 13 km/h 14.5 km/h 46% 0 mm 0.0 W/m2
02:35 23.3 °C 11 °C 1008.4 hPa SW 13 km/h 16.1 km/h 46% 0 mm 0.0 W/m2
02:40 23.2 °C 11.3 °C 1008.4 hPa SW 7.9 km/h 12.9 km/h 47% 0 mm 0.0 W/m2
02:45 23.2 °C 11.3 °C 1008.4 hPa SW 7.9 km/h 12.9 km/h 47% 0 mm 0.0 W/m2
02:50 23.1 °C 11.2 °C 1008.4 hPa SW 6.4 km/h 14.5 km/h 47% 0 mm 0.0 W/m2
03:00 23.1 °C 11.2 °C 1008 hPa SW 9.7 km/h 14.5 km/h 47% 0 mm 0.0 W/m2
03:05 23.1 °C 11.2 °C 1008 hPa SW 11.1 km/h 16.1 km/h 47% 0 mm 0.0 W/m2
03:10 23 °C 11.1 °C 1008 hPa SW 16.3 km/h 16.3 km/h 47% 0 mm 0.0 W/m2
03:15 22.9 °C 11 °C 1007.7 hPa SW 6.4 km/h 11.3 km/h 47% 0 mm 0.0 W/m2
03:20 22.9 °C 11.3 °C 1008 hPa SW 9.7 km/h 9.7 km/h 48% 0 mm 0.0 W/m2
03:30 22.8 °C 11.2 °C 1008 hPa SW 9.7 km/h 16.1 km/h 48% 0 mm 0.0 W/m2
03:35 22.8 °C 11.2 °C 1008 hPa SW 11.1 km/h 12.9 km/h 48% 0 mm 0.0 W/m2
03:40 22.7 °C 11.1 °C 1008 hPa SW 9.7 km/h 14.5 km/h 48% 0 mm 0.0 W/m2
03:45 22.7 °C 11.4 °C 1008 hPa SW 14.3 km/h 17.7 km/h 49% 0 mm 0.0 W/m2
03:50 22.6 °C 11 °C 1008 hPa SW 11.1 km/h 16.1 km/h 48% 0 mm 0.0 W/m2
03:55 22.6 °C 11 °C 1008 hPa SW 13 km/h 16.1 km/h 48% 0 mm 0.0 W/m2
04:00 22.5 °C 10.9 °C 1008 hPa SW 9.7 km/h 14.5 km/h 48% 0 mm 0.0 W/m2
04:05 22.5 °C 10.9 °C 1008 hPa SW 11.1 km/h 12.9 km/h 48% 0 mm 0.0 W/m2
04:10 22.4 °C 10.8 °C 1008 hPa SW 11.1 km/h 16.1 km/h 48% 0 mm 0.0 W/m2
04:15 22.4 °C 10.8 °C 1008 hPa SW 9.7 km/h 12.9 km/h 48% 0 mm 0.0 W/m2
04:20 22.4 °C 10.8 °C 1008 hPa SW 9.7 km/h 16.1 km/h 48% 0 mm 0.0 W/m2
04:25 22.4 °C 11.2 °C 1007.7 hPa SW 7.9 km/h 11.3 km/h 49% 0 mm 0.0 W/m2
04:30 22.4 °C 11.2 °C 1007.7 hPa SW 7.9 km/h 14.5 km/h 49% 0 mm 0.0 W/m2
04:40 22.3 °C 10.8 °C 1007.7 hPa SW 11.1 km/h 14.5 km/h 48% 0 mm 0.0 W/m2
04:45 22.3 °C 10.8 °C 1008 hPa SW 7.9 km/h 12.9 km/h 48% 0 mm 0.0 W/m2
04:51 22.3 °C 11.1 °C 1008 hPa SW 9.7 km/h 11.3 km/h 49% 0 mm 0.0 W/m2
04:56 22.3 °C 10.8 °C 1008 hPa SW 11.1 km/h 12.9 km/h 48% 0 mm 0.0 W/m2
05:01 22.2 °C 10.7 °C 1008 hPa SW 9.7 km/h 12.9 km/h 48% 0 mm 0.0 W/m2
05:06 22.2 °C 10.7 °C 1008 hPa SW 9.7 km/h 11.3 km/h 48% 0 mm 0.0 W/m2
05:11 22.2 °C 10.7 °C 1008 hPa SW 11.1 km/h 14.5 km/h 48% 0 mm 0.0 W/m2
05:16 22.2 °C 10.7 °C 1008 hPa SW 7.9 km/h 12.9 km/h 48% 0 mm 0.0 W/m2
05:21 22.2 °C 10.7 °C 1008 hPa SW 13 km/h 13 km/h 48% 0 mm 0.0 W/m2
05:26 22.2 °C 10.7 °C 1008 hPa SW 7.9 km/h 11.3 km/h 48% 0 mm 0.0 W/m2
05:31 22.2 °C 10.7 °C 1008 hPa SW 7.9 km/h 9.7 km/h 48% 0 mm 0.0 W/m2
05:36 22.1 °C 10.3 °C 1008 hPa SW 6.4 km/h 9.7 km/h 47% 0 mm 0.0 W/m2
05:41 22.1 °C 10.3 °C 1008 hPa SW 6.4 km/h 8 km/h 47% 0 mm 0.0 W/m2
05:46 22.1 °C 10.3 °C 1008 hPa SW 7.9 km/h 8 km/h 47% 0 mm 0.0 W/m2
05:51 22.1 °C 10.3 °C 1008 hPa SW 6.4 km/h 8 km/h 47% 0 mm 0.0 W/m2
05:56 22.1 °C 10.3 °C 1008 hPa Calm     47% 0 mm 0.0 W/m2
06:03 21.9 °C 10.4 °C 1008.4 hPa Calm     48% 0 mm 0.0 W/m2
06:08 21.8 °C 10.3 °C 1008.4 hPa Calm     48% 0 mm 0.0 W/m2
06:13 21.7 °C 10.5 °C 1008.4 hPa Calm     49% 0 mm 0.0 W/m2
06:16 21.7 °C 10.5 °C 1008.4 hPa Calm     49% 0 mm 0.0 W/m2
06:32 21.6 °C 10.7 °C 1008.7 hPa Calm     50% 0 mm 0.0 W/m2
06:48 21.4 °C 10.2 °C 1008.7 hPa Calm     49% 0 mm 12.0 W/m2
07:04 21.6 °C 10.1 °C 1008.7 hPa West 4.7 km/h 6.4 km/h 48% 0 mm 26.0 W/m2
07:20 22.3 °C 10.1 °C 1008.7 hPa West 4.7 km/h 9.7 km/h 46% 0 mm 63.0 W/m2
07:28 22.9 °C 10 °C 1009 hPa West 9.7 km/h 11.3 km/h 44% 0 mm 116.0 W/m2
07:44 23.4 °C 9.8 °C 1009 hPa WSW 9.7 km/h 11.3 km/h 42% 0 mm 185.0 W/m2
07:59 24 °C 9.6 °C 1009 hPa WSW 7.9 km/h 11.3 km/h 40% 0 mm 243.0 W/m2
08:14 24.4 °C 9.5 °C 1009 hPa WSW 11.1 km/h 11.3 km/h 39% 0 mm 299.0 W/m2
08:29 25.2 °C 9.9 °C 1009 hPa Calm   8 km/h 38% 0 mm 360.0 W/m2
08:52 25.7 °C 10.3 °C 1009 hPa Calm     38% 0 mm 357.0 W/m2
09:00 25.9 °C 10.5 °C 1009 hPa Calm     38% 0 mm 441.0 W/m2
09:15 26.7 °C 10.8 °C 1009 hPa Calm     37% 0 mm 253.0 W/m2
09:37 27.2 °C 12 °C 1009 hPa Calm     39% 0 mm 325.0 W/m2
09:52 27.7 °C 12.1 °C 1009 hPa WSW 7.9 km/h 12.9 km/h 38% 0 mm 350.0 W/m2
09:56 27.9 °C 12.3 °C 1009 hPa WSW 9.7 km/h 12.9 km/h 38% 0 mm 464.0 W/m2
10:06 28.6 °C 12.9 °C 1009 hPa WSW 6.4 km/h 11.3 km/h 38% 0 mm 735.0 W/m2
10:21 29.5 °C 14.5 °C 1009 hPa Calm     40% 0 mm 527.0 W/m2
10:31 29.6 °C 15 °C 1008.7 hPa Calm     41% 0 mm 443.0 W/m2
10:47 29.8 °C 15.9 °C 1008.7 hPa Calm     43% 0 mm 517.0 W/m2
11:09 30.4 °C 16 °C 1008.4 hPa Calm     42% 0 mm 512.0 W/m2
11:17 30.8 °C 16.8 °C 1008.4 hPa Calm     43% 0 mm 427.0 W/m2
11:33 31.2 °C 17.1 °C 1008 hPa Calm     43% 0 mm 418.0 W/m2
11:48 31.5 °C 17 °C 1007.7 hPa Calm     42% 0 mm 534.0 W/m2
12:04 31.7 °C 17.6 °C 1007.7 hPa Calm     43% 0 mm 696.0 W/m2
12:26 31.9 °C 17.4 °C 1007.3 hPa Calm     42% 0 mm 735.0 W/m2
12:41 32.6 °C 17.6 °C 1007.3 hPa Calm     41% 0 mm 1162.0 W/m2
12:56 32.3 °C 17.4 °C 1007 hPa Calm   3.2 km/h 41% 0 mm 991.0 W/m2
13:12 32.7 °C 17.3 °C 1006.7 hPa Calm   9.7 km/h 40% 0 mm 462.0 W/m2
13:20 33.3 °C 17.5 °C 1006.3 hPa West 3.2 km/h 6.4 km/h 39% 0 mm 1151.0 W/m2
13:35 33.1 °C 17.3 °C 1006.3 hPa West 1.4 km/h 1.6 km/h 39% 0 mm 309.0 W/m2
13:51 33.6 °C 17.3 °C 1006.3 hPa SW 17.7 km/h 17.7 km/h 38% 0 mm 921.0 W/m2
14:06 34.1 °C 17.3 °C 1006 hPa SSW 4.7 km/h 6.4 km/h 37% 0 mm 1121.0 W/m2
14:28 33.6 °C 16.9 °C 1005.6 hPa South 3.2 km/h 17.7 km/h 37% 0 mm 309.0 W/m2
14:42 33.7 °C 17.8 °C 1005.6 hPa East 6.4 km/h 20.9 km/h 39% 0 mm 309.0 W/m2
14:57 33.4 °C 16.3 °C 1005.3 hPa Calm     36% 0 mm 151.0 W/m2
15:07 32.9 °C 16.3 °C 1005.3 hPa Calm     37% 0 mm 169.0 W/m2
15:18 32.8 °C 16.6 °C 1005 hPa Calm   6.4 km/h 38% 0 mm 172.0 W/m2
15:28 32.8 °C 17.8 °C 1005.3 hPa ESE 13 km/h 32.2 km/h 41% 0 mm 172.0 W/m2
15:37 31.6 °C 17.5 °C 1005 hPa SE 24.1 km/h 29 km/h 43% 0 mm 185.0 W/m2
15:47 31.4 °C 17.3 °C 1005 hPa SE 27.4 km/h 30.6 km/h 43% 0 mm 207.0 W/m2
16:05 31.7 °C 17.2 °C 1005 hPa SSE 19.5 km/h 30.6 km/h 42% 0 mm 285.0 W/m2
Canyon Roadhouse, Fishriver Canyon, Namibia
Compliments of Weather Underground - 2 mb